Time;durP1;ratioP1;P1;durP2;ratioP2;P2;SDS_P1;SDS_P2;PMS_P1;PMS_P2;Temp;Humidity;BMP_temperature;BMP_pressure;BME280_temperature;BME280_humidity;BME280_pressure;Samples;Min_cycle;Max_cycle;Signal;HPM_P1;HPM_P2
2023/01/01 00:00:05;;;;;;;71.35;68.45;;;8.60;98.30;;;;;;5034371;28;20033;-78
2023/01/01 00:02:31;;;;;;;56.22;53.75;;;8.60;98.30;;;;;;5012503;28;20037;-79
2023/01/01 00:04:57;;;;;;;56.78;54.58;;;8.50;98.30;;;;;;5028229;28;20478;-78
2023/01/01 00:07:23;;;;;;;52.85;50.85;;;8.50;98.30;;;;;;5027637;28;20041;-78
2023/01/01 00:12:33;;;;;;;52.58;50.58;;;8.50;98.30;;;;;;5028358;28;20067;-78
2023/01/01 00:14:59;;;;;;;50.60;48.70;;;8.50;98.30;;;;;;5028015;28;20485;-78
2023/01/01 00:17:24;;;;;;;49.30;47.40;;;8.50;98.30;;;;;;5027957;28;20037;-78
2023/01/01 00:19:50;;;;;;;49.58;47.67;;;8.40;98.30;;;;;;5027875;28;20032;-78
2023/01/01 00:22:17;;;;;;;46.60;44.80;;;8.40;98.30;;;;;;5027314;28;20030;-78
2023/01/01 00:24:42;;;;;;;47.22;45.42;;;8.40;98.30;;;;;;5027296;28;20442;-78
2023/01/01 00:27:08;;;;;;;47.92;46.13;;;8.30;98.30;;;;;;4995122;28;20112;-78
2023/01/01 00:29:34;;;;;;;48.13;46.33;;;8.30;98.30;;;;;;5011570;28;20034;-78
2023/01/01 00:31:59;;;;;;;50.50;48.60;;;8.30;98.30;;;;;;5028342;28;20086;-78
2023/01/01 00:34:25;;;;;;;49.25;47.35;;;8.30;98.30;;;;;;5011594;28;20037;-78
2023/01/01 00:36:51;;;;;;;43.40;41.72;;;8.20;98.30;;;;;;5029294;28;20030;-78
2023/01/01 00:39:16;;;;;;;43.30;41.70;;;8.20;98.30;;;;;;5015602;28;20536;-78
2023/01/01 00:41:42;;;;;;;46.40;44.63;;;8.20;98.30;;;;;;5016956;28;20064;-78
2023/01/01 00:44:08;;;;;;;47.78;45.97;;;8.20;98.30;;;;;;5033500;28;20037;-78
2023/01/01 00:46:33;;;;;;;45.53;43.83;;;8.20;98.20;;;;;;5015620;28;20030;-78
2023/01/01 00:48:59;;;;;;;47.78;45.97;;;8.10;98.10;;;;;;5015539;28;20061;-78
2023/01/01 00:51:25;;;;;;;46.10;44.40;;;8.10;98.00;;;;;;5033366;28;20026;-78
2023/01/01 00:53:51;;;;;;;48.72;46.88;;;7.90;98.00;;;;;;5034065;28;20034;-78
2023/01/01 00:56:16;;;;;;;51.00;49.10;;;7.80;98.00;;;;;;4999586;28;20049;-78
2023/01/01 00:58:43;;;;;;;45.38;43.67;;;7.70;98.00;;;;;;5031239;28;20084;-78
2023/01/01 01:01:09;;;;;;;46.45;44.67;;;7.60;98.00;;;;;;5031863;28;20300;-78
2023/01/01 01:03:37;;;;;;;49.55;47.65;;;7.50;98.10;;;;;;5032177;28;20092;-78
2023/01/01 01:06:03;;;;;;;50.15;48.25;;;7.40;98.10;;;;;;5034081;28;20417;-78
2023/01/01 01:08:31;;;;;;;48.70;46.90;;;7.40;98.10;;;;;;5033780;28;20068;-78
2023/01/01 01:11:19;;;;;;;48.42;46.63;;;7.30;98.30;;;;;;5035227;28;20482;-78
2023/01/01 01:13:46;;;;;;;50.67;48.78;;;7.20;98.10;;;;;;5034530;28;20059;-77
2023/01/01 01:16:15;;;;;;;50.42;48.53;;;7.20;98.10;;;;;;5032811;28;20177;-78
2023/01/01 01:18:41;;;;;;;46.67;44.88;;;7.10;98.10;;;;;;5031728;28;20560;-78
2023/01/01 01:21:08;;;;;;;48.20;46.40;;;7.10;98.10;;;;;;5014896;28;20437;-78
2023/01/01 01:23:33;;;;;;;46.55;44.75;;;7.00;98.10;;;;;;5030521;28;20056;-78
2023/01/01 01:26:27;;;;;;;48.63;46.78;;;7.00;98.10;;;;;;5030868;28;20446;-78
2023/01/01 01:28:53;;;;;;;46.92;45.13;;;6.90;98.10;;;;;;5030300;28;20038;-78
2023/01/01 01:31:20;;;;;;;45.72;44.03;;;6.90;98.10;;;;;;5034331;28;20052;-77
2023/01/01 01:33:48;;;;;;;45.00;43.30;;;6.80;98.10;;;;;;5037337;28;20473;-77
2023/01/01 01:36:15;;;;;;;46.85;45.05;;;6.80;98.10;;;;;;5035491;28;20101;-78
2023/01/01 01:38:41;;;;;;;47.65;45.85;;;6.70;98.10;;;;;;5001142;28;20033;-78
2023/01/01 01:41:07;;;;;;;;;;;6.70;98.10;;;;;;5015710;28;20127;-78
2023/01/01 01:43:32;;;;;;;45.47;43.78;;;6.70;98.30;;;;;;5032264;28;19952;-78
2023/01/01 01:46:07;;;;;;;44.60;42.90;;;6.60;98.10;;;;;;5031015;28;20128;-78
2023/01/01 01:48:39;;;;;;;45.47;43.78;;;6.60;98.10;;;;;;5031040;28;20453;-78
2023/01/01 01:51:06;;;;;;;41.78;40.17;;;6.50;98.10;;;;;;5030838;28;20026;-77
2023/01/01 01:53:39;;;;;;;45.03;43.33;;;6.50;98.10;;;;;;5030390;28;20056;-78
2023/01/01 01:56:11;;;;;;;45.50;43.80;;;6.50;98.10;;;;;;5030607;28;20102;-78
2023/01/01 01:58:37;;;;;;;43.58;41.92;;;6.50;98.10;;;;;;5030840;28;20112;-78
2023/01/01 02:01:03;;;;;;;40.80;39.30;;;6.50;98.20;;;;;;5031129;28;20308;-78
2023/01/01 02:03:36;;;;;;;41.97;40.38;;;6.50;98.20;;;;;;5031174;28;20179;-78
2023/01/01 02:06:02;;;;;;;41.03;39.47;;;6.50;98.20;;;;;;5031657;28;20378;-78
2023/01/01 02:08:29;;;;;;;42.38;40.78;;;6.50;98.20;;;;;;4998843;28;20025;-78
2023/01/01 02:10:54;;;;;;;41.15;39.55;;;6.50;98.20;;;;;;5031268;28;20471;-78
2023/01/01 02:13:21;;;;;;;41.42;39.83;;;6.50;98.20;;;;;;5030661;28;20068;-78
2023/01/01 02:16:01;;;;;;;;;;;6.40;98.20;;;;;;5031790;28;20371;-78
2023/01/01 02:18:38;;;;;;;40.63;39.13;;;6.40;98.20;;;;;;5031901;28;19995;-78
2023/01/01 02:21:24;;;;;;;43.40;41.80;;;6.40;98.10;;;;;;5032902;28;20422;-78
2023/01/01 02:24:17;;;;;;;42.78;41.17;;;6.40;98.10;;;;;;5032696;28;20472;-78
2023/01/01 02:26:48;;;;;;;43.50;41.90;;;6.40;98.10;;;;;;5030326;28;20028;-79
2023/01/01 02:29:17;;;;;;;43.42;41.80;;;6.40;98.10;;;;;;5031273;28;20022;-78
2023/01/01 02:31:58;;;;;;;43.88;42.17;;;6.40;98.30;;;;;;5034626;28;20151;-78
2023/01/01 02:34:28;;;;;;;43.17;41.58;;;6.40;98.20;;;;;;5035745;28;20089;-78
2023/01/01 02:36:56;;;;;;;42.70;41.10;;;6.40;98.10;;;;;;5033726;28;20029;-79
2023/01/01 02:39:28;;;;;;;44.78;43.08;;;6.40;98.20;;;;;;5033222;28;20026;-79
2023/01/01 02:41:56;;;;;;;44.72;43.03;;;6.40;98.10;;;;;;5032739;28;20386;-79
2023/01/01 02:44:25;;;;;;;39.97;38.47;;;6.40;98.10;;;;;;5034047;28;20076;-78
2023/01/01 02:46:51;;;;;;;40.80;39.30;;;6.40;98.10;;;;;;5035103;28;20179;-78
2023/01/01 02:49:16;;;;;;;43.25;41.65;;;6.40;98.10;;;;;;5018102;28;20105;-79
2023/01/01 02:52:14;;;;;;;44.33;42.63;;;6.40;98.10;;;;;;5032524;28;20067;-78
2023/01/01 02:55:18;;;;;;;43.25;41.65;;;6.40;98.10;;;;;;5033996;28;20049;-79
2023/01/01 03:00:17;;;;;;;45.13;43.42;;;6.40;98.10;;;;;;5024209;28;20421;-79
2023/01/01 03:00:49;;;;;;;44.50;42.80;;;6.40;98.10;;;;;;5031200;28;20039;-79
2023/01/01 03:03:46;;;;;;;43.92;42.22;;;6.40;98.10;;;;;;5031921;28;20044;-79
2023/01/01 03:06:54;;;;;;;44.33;42.63;;;6.40;98.10;;;;;;5033486;28;20030;-79
2023/01/01 03:09:34;;;;;;;44.60;42.90;;;6.30;98.10;;;;;;4996187;28;20034;-79
2023/01/01 03:12:20;;;;;;;43.63;41.95;;;6.30;98.10;;;;;;5033808;28;20061;-79
2023/01/01 03:14:56;;;;;;;42.90;41.30;;;6.30;98.10;;;;;;5034387;28;20029;-79
2023/01/01 03:17:34;;;;;;;43.60;41.90;;;6.30;98.10;;;;;;5033955;28;20548;-80
2023/01/01 03:20:05;;;;;;;47.70;45.90;;;6.30;98.00;;;;;;5030869;28;20036;-79
2023/01/01 03:22:33;;;;;;;47.22;45.42;;;6.30;98.00;;;;;;5031236;28;20025;-79
2023/01/01 03:25:11;;;;;;;48.95;47.05;;;6.30;98.00;;;;;;5029461;28;20480;-79
2023/01/01 03:28:11;;;;;;;49.72;47.83;;;6.20;98.00;;;;;;5030390;28;20250;-79
2023/01/01 03:30:39;;;;;;;51.83;49.83;;;6.20;98.00;;;;;;5032197;28;20025;-79
2023/01/01 03:33:11;;;;;;;51.75;49.75;;;6.20;97.90;;;;;;5031906;28;20036;-79
2023/01/01 03:35:52;;;;;;;53.60;51.50;;;6.10;97.90;;;;;;5033383;28;20064;-79
2023/01/01 03:38:35;;;;;;;54.35;52.25;;;6.10;97.90;;;;;;5031921;28;20537;-79
2023/01/01 03:41:05;;;;;;;55.45;53.33;;;6.10;97.90;;;;;;5030578;28;20448;-79
2023/01/01 03:43:43;;;;;;;55.50;53.30;;;6.10;97.90;;;;;;5032909;28;20029;-79
2023/01/01 03:46:12;;;;;;;55.17;53.05;;;6.10;97.90;;;;;;5033239;28;20470;-78
2023/01/01 03:48:57;;;;;;;54.60;52.50;;;6.00;97.80;;;;;;5031437;28;20088;-79
2023/01/01 03:51:55;;;;;;;55.10;53.00;;;6.00;97.80;;;;;;5032094;28;20036;-79
2023/01/01 03:54:42;;;;;;;54.35;52.25;;;6.00;97.80;;;;;;5032411;28;20032;-78
2023/01/01 03:57:51;;;;;;;55.30;53.10;;;5.90;97.80;;;;;;5029685;28;20034;-79
2023/01/01 04:00:23;;;;;;;58.45;56.15;;;5.90;97.80;;;;;;5029191;28;20075;-79
2023/01/01 04:03:05;;;;;;;57.97;55.67;;;5.90;97.80;;;;;;5030620;28;20108;-78
2023/01/01 04:05:35;;;;;;;56.60;54.40;;;5.90;97.80;;;;;;5030127;28;20017;-79
2023/01/01 04:08:02;;;;;;;55.10;52.90;;;5.80;97.80;;;;;;5029597;28;20092;-78
2023/01/01 04:10:30;;;;;;;54.83;52.65;;;5.80;97.80;;;;;;5028430;28;20067;-79
2023/01/01 04:12:57;;;;;;;54.35;52.25;;;5.80;97.80;;;;;;5011889;28;20029;-78
2023/01/01 04:15:26;;;;;;;56.78;54.55;;;5.80;97.80;;;;;;5030298;28;20022;-78
2023/01/01 04:17:52;;;;;;;54.55;52.42;;;5.80;97.80;;;;;;5028826;28;20041;-79
2023/01/01 04:20:18;;;;;;;;;;;5.80;97.80;;;;;;5029072;28;20033;-78
2023/01/01 04:22:44;;;;;;;59.30;57.00;;;5.80;97.80;;;;;;5028606;28;19963;-78
2023/01/01 04:25:10;;;;;;;54.90;52.70;;;5.80;97.70;;;;;;5012522;28;20068;-78
2023/01/01 04:27:37;;;;;;;55.08;52.90;;;5.70;97.70;;;;;;5029960;28;20052;-78
2023/01/01 04:30:03;;;;;;;;;;;5.70;97.70;;;;;;5030191;28;20096;-78
2023/01/01 04:32:29;;;;;;;61.43;59.03;;;5.70;97.80;;;;;;5031320;28;19955;-79
2023/01/01 04:34:55;;;;;;;59.85;57.47;;;5.70;97.70;;;;;;5030732;28;20486;-77
2023/01/01 04:37:20;;;;;;;57.83;55.53;;;5.70;97.80;;;;;;4997879;28;20037;-78
2023/01/01 04:39:46;;;;;;;59.67;57.30;;;5.70;97.80;;;;;;5031631;28;20052;-78
2023/01/01 04:42:12;;;;;;;58.03;55.72;;;5.70;97.80;;;;;;5032008;28;20429;-78
2023/01/01 04:44:38;;;;;;;58.08;55.78;;;5.70;97.80;;;;;;5029469;28;20029;-78
2023/01/01 04:47:04;;;;;;;61.05;58.65;;;5.80;97.80;;;;;;5029835;28;20038;-78
2023/01/01 04:49:29;;;;;;;56.08;53.88;;;5.80;97.80;;;;;;5028454;28;20033;-78
2023/01/01 04:51:55;;;;;;;55.70;53.50;;;5.80;97.80;;;;;;5028705;28;20096;-78
2023/01/01 04:54:21;;;;;;;57.15;54.92;;;5.80;97.80;;;;;;5030232;28;20497;-78
2023/01/01 04:56:46;;;;;;;54.83;52.63;;;5.80;97.80;;;;;;5029504;28;20056;-78
2023/01/01 04:59:12;;;;;;;54.90;52.70;;;5.80;97.80;;;;;;5028372;28;20560;-78
2023/01/01 05:01:38;;;;;;;55.72;53.53;;;5.80;97.80;;;;;;5028304;28;20025;-78
2023/01/01 05:04:04;;;;;;;57.60;55.30;;;5.80;97.80;;;;;;5027921;28;20041;-78
2023/01/01 05:06:29;;;;;;;54.22;52.13;;;5.80;97.80;;;;;;5027998;28;20030;-78
2023/01/01 05:08:56;;;;;;;53.85;51.75;;;5.80;97.80;;;;;;5028150;28;20112;-78
2023/01/01 05:11:28;;;;;;;52.83;50.72;;;5.80;97.80;;;;;;5029483;28;20052;-78
2023/01/01 05:13:56;;;;;;;54.63;52.53;;;5.80;97.80;;;;;;5030910;28;20117;-78
2023/01/01 05:16:24;;;;;;;51.92;49.92;;;5.90;97.80;;;;;;5032536;28;20022;-78
2023/01/01 05:18:51;;;;;;;52.53;50.42;;;5.80;97.80;;;;;;5029867;28;20032;-78
2023/01/01 05:21:18;;;;;;;;;;;5.90;97.90;;;;;;5013839;28;20041;-78
2023/01/01 05:23:44;;;;;;;50.92;48.92;;;5.90;98.00;;;;;;5032803;28;19905;-78
2023/01/01 05:26:12;;;;;;;48.05;46.25;;;6.00;97.90;;;;;;5035424;28;20025;-78
2023/01/01 05:28:38;;;;;;;43.92;42.22;;;6.10;98.00;;;;;;5034107;28;20029;-79
2023/01/01 05:31:25;;;;;;;42.55;40.95;;;6.20;98.00;;;;;;5035641;28;20105;-78
2023/01/01 05:33:51;;;;;;;40.88;39.33;;;6.30;98.00;;;;;;5033007;28;20029;-78
2023/01/01 05:36:20;;;;;;;39.67;38.17;;;6.40;98.00;;;;;;5035058;28;20128;-78
2023/01/01 05:38:46;;;;;;;42.90;41.30;;;6.50;97.90;;;;;;5033624;28;20057;-79
2023/01/01 05:41:14;;;;;;;38.92;37.42;;;6.60;97.90;;;;;;5033907;28;20017;-79
2023/01/01 05:43:40;;;;;;;37.45;36.05;;;6.60;97.80;;;;;;5034072;28;20037;-78
2023/01/01 05:46:07;;;;;;;;;;;6.70;97.90;;;;;;5033293;28;20025;-78
2023/01/01 05:48:35;;;;;;;39.47;37.97;;;6.70;97.90;;;;;;5032851;28;19905;-78
2023/01/01 05:51:12;;;;;;;39.55;38.05;;;6.80;97.90;;;;;;5035452;28;20421;-78
2023/01/01 05:53:37;;;;;;;;;;;6.90;97.90;;;;;;5034905;28;20030;-78
2023/01/01 05:56:04;;;;;;;40.13;38.63;;;6.90;97.90;;;;;;5032017;28;19927;-78
2023/01/01 05:58:30;;;;;;;44.25;42.55;;;7.00;97.90;;;;;;5014442;28;20505;-79
2023/01/01 06:00:56;;;;;;;44.60;42.90;;;7.00;98.10;;;;;;5014902;28;20064;-79
2023/01/01 06:03:22;;;;;;;45.53;43.80;;;7.10;97.90;;;;;;5016613;28;20428;-79
2023/01/01 06:05:48;;;;;;;47.25;45.45;;;7.10;97.90;;;;;;5032311;28;20030;-78
2023/01/01 06:08:14;;;;;;;45.13;43.40;;;7.10;97.90;;;;;;5031963;28;20099;-79
2023/01/01 06:10:39;;;;;;;46.45;44.65;;;7.10;97.90;;;;;;5034528;28;20030;-78
2023/01/01 06:13:05;;;;;;;45.22;43.53;;;7.20;98.00;;;;;;5034858;28;20033;-79
2023/01/01 06:15:31;;;;;;;46.47;44.67;;;7.30;98.00;;;;;;5035967;28;20037;-79
2023/01/01 06:17:57;;;;;;;49.75;47.85;;;7.30;98.00;;;;;;5013754;28;20060;-79
2023/01/01 06:20:23;;;;;;;;;;;7.30;98.00;;;;;;4998075;28;20030;-79
2023/01/01 06:22:49;;;;;;;53.95;51.85;;;7.40;98.00;;;;;;5014595;28;19959;-79
2023/01/01 06:25:14;;;;;;;52.47;50.47;;;7.30;98.00;;;;;;5032531;28;20025;-79
2023/01/01 06:27:40;;;;;;;51.22;49.22;;;7.30;98.00;;;;;;5033463;28;20040;-79
2023/01/01 06:30:07;;;;;;;56.28;54.08;;;7.30;98.10;;;;;;5032920;28;20058;-79
2023/01/01 06:32:33;;;;;;;56.55;54.35;;;7.30;98.20;;;;;;5031543;28;20037;-79
2023/01/01 06:34:59;;;;;;;61.58;59.17;;;7.30;98.10;;;;;;5030278;28;20032;-79
2023/01/01 06:37:26;;;;;;;58.78;56.47;;;7.20;98.10;;;;;;5030045;28;20030;-78
2023/01/01 06:39:52;;;;;;;58.55;56.35;;;7.10;98.10;;;;;;5030049;28;20029;-79
2023/01/01 06:42:17;;;;;;;51.47;49.47;;;7.10;98.10;;;;;;5013752;28;20030;-79
2023/01/01 06:44:43;;;;;;;51.75;49.78;;;7.00;98.10;;;;;;5029802;28;20441;-79
2023/01/01 06:47:09;;;;;;;52.85;50.85;;;6.90;98.00;;;;;;5013388;28;20030;-79
2023/01/01 06:49:34;;;;;;;55.45;53.35;;;6.80;98.00;;;;;;5031360;28;20069;-79
2023/01/01 06:52:00;;;;;;;53.90;51.88;;;6.70;98.10;;;;;;5030977;28;20425;-79
2023/01/01 06:54:26;;;;;;;59.38;57.08;;;6.60;98.10;;;;;;5029125;28;20052;-79
2023/01/01 06:56:52;;;;;;;56.53;54.33;;;6.50;98.10;;;;;;5012361;28;20041;-79
2023/01/01 06:59:17;;;;;;;54.88;52.78;;;6.50;98.30;;;;;;5028257;28;20033;-78
2023/01/01 07:01:43;;;;;;;54.55;52.45;;;6.60;98.30;;;;;;5028882;28;20132;-79
2023/01/01 07:04:14;;;;;;;58.35;56.15;;;6.50;98.30;;;;;;5013083;28;20413;-79
2023/01/01 07:06:41;;;;;;;55.72;53.63;;;6.60;98.30;;;;;;5029098;28;20032;-79
2023/01/01 07:09:07;;;;;;;60.00;57.70;;;6.50;98.20;;;;;;5029737;28;20401;-78
2023/01/01 07:11:33;;;;;;;;;;;6.50;98.20;;;;;;5031362;28;20032;-79
2023/01/01 07:13:59;;;;;;;51.22;49.33;;;6.50;98.30;;;;;;5031320;28;19905;-79
2023/01/01 07:16:25;;;;;;;53.65;51.63;;;6.50;98.30;;;;;;5012899;28;20113;-79
2023/01/01 07:18:51;;;;;;;55.95;53.85;;;6.50;98.30;;;;;;5012775;28;20042;-79
2023/01/01 07:21:38;;;;;;;56.88;54.67;;;6.50;98.30;;;;;;5030760;28;20095;-79
2023/01/01 07:24:05;;;;;;;50.58;48.67;;;6.50;98.30;;;;;;5029815;28;20112;-79
2023/01/01 07:26:32;;;;;;;53.35;51.35;;;6.60;98.40;;;;;;5031770;28;20385;-79
2023/01/01 07:28:58;;;;;;;58.15;55.95;;;6.50;98.30;;;;;;5032044;28;20021;-79
2023/01/01 07:31:24;;;;;;;52.53;50.53;;;6.60;98.40;;;;;;5032034;28;20496;-79
2023/01/01 07:33:50;;;;;;;50.58;48.67;;;6.60;98.40;;;;;;5014769;28;20061;-79
2023/01/01 07:36:16;;;;;;;51.40;49.45;;;6.70;98.30;;;;;;5030047;28;20501;-79
2023/01/01 07:38:41;;;;;;;54.22;52.13;;;6.70;98.30;;;;;;5013059;28;20036;-79
2023/01/01 07:41:07;;;;;;;56.97;54.78;;;6.70;98.30;;;;;;5030880;28;20056;-79
2023/01/01 07:43:33;;;;;;;57.67;55.47;;;6.80;98.30;;;;;;5030654;28;20107;-79
2023/01/01 07:45:59;;;;;;;60.10;57.80;;;6.80;98.20;;;;;;5029713;28;20037;-79
2023/01/01 07:48:25;;;;;;;62.55;60.10;;;6.70;98.20;;;;;;5018058;28;20076;-79
2023/01/01 07:50:51;;;;;;;61.45;59.05;;;6.70;98.30;;;;;;5031878;28;20033;-79
2023/01/01 07:53:16;;;;;;;59.95;57.58;;;6.80;98.40;;;;;;4996940;28;20124;-79
2023/01/01 07:55:44;;;;;;;59.50;57.20;;;6.90;98.40;;;;;;5028501;28;20496;-79
2023/01/01 07:58:11;;;;;;;57.03;54.83;;;7.10;98.50;;;;;;5012740;28;20034;-79
2023/01/01 08:00:36;;;;;;;59.55;57.25;;;7.20;98.40;;;;;;4998054;28;20565;-79
2023/01/01 08:03:03;;;;;;;55.92;53.72;;;7.20;98.30;;;;;;5031858;28;20068;-78
2023/01/01 08:05:28;;;;;;;59.42;57.13;;;7.30;98.30;;;;;;5033147;28;20040;-79
2023/01/01 08:07:54;;;;;;;58.15;55.85;;;7.40;98.30;;;;;;5016714;28;20029;-79
2023/01/01 08:10:20;;;;;;;57.67;55.42;;;7.40;98.20;;;;;;5033614;28;20033;-79
2023/01/01 08:12:46;;;;;;;56.25;54.05;;;7.50;98.20;;;;;;5016178;28;20117;-79
2023/01/01 08:15:12;;;;;;;56.97;54.78;;;7.50;98.20;;;;;;5031499;28;20036;-80
2023/01/01 08:17:39;;;;;;;54.97;52.88;;;7.60;98.20;;;;;;5031139;28;20060;-79
2023/01/01 08:20:05;;;;;;;;;;;7.60;98.20;;;;;;5014569;28;20040;-79
2023/01/01 08:22:31;;;;;;;57.38;55.17;;;7.70;98.20;;;;;;5029349;28;19905;-79
2023/01/01 08:24:56;;;;;;;56.80;54.60;;;7.70;98.20;;;;;;5029537;28;20080;-79
2023/01/01 08:27:22;;;;;;;58.17;55.88;;;7.70;98.20;;;;;;5014058;28;20045;-79
2023/01/01 08:29:48;;;;;;;60.85;58.45;;;7.80;98.20;;;;;;4998237;28;20033;-79
2023/01/01 08:32:13;;;;;;;63.30;60.80;;;7.80;98.20;;;;;;5031560;28;20033;-79
2023/01/01 08:34:39;;;;;;;65.90;63.30;;;7.80;98.20;;;;;;5014424;28;20037;-79
2023/01/01 08:37:10;;;;;;;67.72;65.03;;;7.70;98.20;;;;;;5013368;28;20097;-79
2023/01/01 08:39:35;;;;;;;70.20;67.40;;;7.80;98.20;;;;;;5030670;28;20391;-79
2023/01/01 08:42:01;;;;;;;71.32;68.43;;;7.70;98.20;;;;;;5030884;28;20029;-79
2023/01/01 08:44:27;;;;;;;71.28;68.47;;;7.80;98.20;;;;;;5032164;28;20029;-79
2023/01/01 08:46:52;;;;;;;73.38;70.47;;;7.80;98.20;;;;;;5032171;28;20030;-79
2023/01/01 08:49:18;;;;;;;73.57;70.68;;;7.80;98.20;;;;;;5034347;28;20056;-79
2023/01/01 08:51:44;;;;;;;77.80;74.70;;;7.90;98.30;;;;;;5001966;28;20032;-79
2023/01/01 08:54:09;;;;;;;74.43;71.43;;;7.90;98.20;;;;;;5033011;28;20083;-79
2023/01/01 08:56:36;;;;;;;73.75;70.75;;;7.90;98.20;;;;;;5029110;28;20106;-79
2023/01/01 08:59:02;;;;;;;71.78;68.88;;;7.90;98.20;;;;;;5016756;28;20037;-79
2023/01/01 09:01:28;;;;;;;67.95;65.25;;;8.00;98.20;;;;;;5037419;28;20061;-79
2023/01/01 09:03:54;;;;;;;63.25;60.75;;;8.00;98.20;;;;;;5044373;28;20036;-79
2023/01/01 09:06:20;;;;;;;65.13;62.53;;;8.10;98.20;;;;;;5042135;28;20022;-79
2023/01/01 09:08:45;;;;;;;64.13;61.58;;;8.10;98.20;;;;;;5024284;28;20084;-79
2023/01/01 09:11:20;;;;;;;64.68;62.08;;;8.10;98.20;;;;;;5010441;28;20038;-79
2023/01/01 09:13:46;;;;;;;63.75;61.17;;;8.20;98.20;;;;;;5043774;28;20612;-79
2023/01/01 09:16:12;;;;;;;66.07;63.47;;;8.20;98.20;;;;;;5043629;28;20040;-79
2023/01/01 09:18:37;;;;;;;62.95;60.45;;;8.20;98.20;;;;;;5046452;28;20382;-79
2023/01/01 09:21:05;;;;;;;60.83;58.42;;;8.20;98.20;;;;;;5030606;28;20074;-79
2023/01/01 09:23:30;;;;;;;61.67;59.28;;;8.30;98.30;;;;;;5047886;28;20034;-78
2023/01/01 09:26:05;;;;;;;58.58;56.25;;;8.40;98.40;;;;;;5022062;28;20545;-78
2023/01/01 09:28:30;;;;;;;60.88;58.47;;;8.60;98.50;;;;;;5037232;28;20029;-78
2023/01/01 09:30:56;;;;;;;61.00;58.60;;;8.70;98.40;;;;;;5044120;28;20092;-78
2023/01/01 09:33:22;;;;;;;62.35;59.90;;;8.80;98.40;;;;;;5032604;28;20048;-78
2023/01/01 09:35:47;;;;;;;64.47;61.97;;;8.90;98.30;;;;;;5056394;28;20048;-78
2023/01/01 09:38:13;;;;;;;70.80;68.00;;;8.90;98.20;;;;;;5056039;28;20017;-78
2023/01/01 09:41:08;;;;;;;66.90;64.20;;;8.80;98.00;;;;;;5040068;28;20021;-77
2023/01/01 09:43:42;;;;;;;73.72;70.78;;;8.80;98.10;;;;;;5056982;28;20017;-78
2023/01/01 09:46:10;;;;;;;74.57;71.68;;;8.70;98.00;;;;;;5054132;28;20035;-78
2023/01/01 09:48:39;;;;;;;69.80;67.03;;;8.60;97.90;;;;;;5053690;28;20009;-78
2023/01/01 09:51:14;;;;;;;73.82;70.93;;;8.40;97.80;;;;;;5051879;28;20520;-78
2023/01/01 09:54:04;;;;;;;71.90;69.10;;;8.30;97.80;;;;;;5050685;28;20025;-76
2023/01/01 09:56:32;;;;;;;71.25;68.45;;;8.10;98.10;;;;;;5038093;28;20041;-75
2023/01/01 09:58:58;;;;;;;69.55;66.85;;;8.00;97.90;;;;;;5035037;28;20032;-76
2023/01/01 10:01:53;;;;;;;65.55;62.95;;;8.00;98.00;;;;;;5024902;28;20032;-76
2023/01/01 10:04:25;;;;;;;66.25;63.60;;;7.90;98.00;;;;;;5045606;28;20021;-80
2023/01/01 10:07:15;;;;;;;64.82;62.22;;;7.90;98.10;;;;;;5035481;28;20056;-78
2023/01/01 10:09:44;;;;;;;65.45;62.85;;;7.90;98.20;;;;;;5034705;28;20488;-78
2023/01/01 10:12:28;;;;;;;60.17;57.78;;;8.10;98.40;;;;;;5049332;28;20084;-77
2023/01/01 10:15:02;;;;;;;62.80;60.30;;;8.20;98.50;;;;;;5032465;28;20040;-77
2023/01/01 10:17:40;;;;;;;62.42;59.92;;;8.30;98.20;;;;;;5036617;28;20029;-77
2023/01/01 10:20:32;;;;;;;62.80;60.30;;;8.40;98.10;;;;;;5037510;28;20044;-78
2023/01/01 10:23:13;;;;;;;60.70;58.30;;;8.30;98.10;;;;;;5036035;28;20021;-78
2023/01/01 10:25:39;;;;;;;62.97;60.47;;;8.30;98.30;;;;;;5037585;28;20080;-78
2023/01/01 10:28:47;;;;;;;60.35;57.95;;;8.30;98.00;;;;;;5017502;28;20079;-79
2023/01/01 10:31:43;;;;;;;62.00;59.50;;;8.10;98.00;;;;;;5034255;28;20054;-80
2023/01/01 10:34:25;;;;;;;65.25;62.65;;;8.20;98.30;;;;;;5036536;28;20034;-78
2023/01/01 10:36:56;;;;;;;61.45;59.05;;;8.30;98.30;;;;;;5035516;28;20032;-78
2023/01/01 10:39:23;;;;;;;66.72;64.05;;;8.30;98.20;;;;;;5036897;28;20025;-77
2023/01/01 10:41:49;;;;;;;65.07;62.47;;;8.30;98.20;;;;;;5017943;28;20064;-78
2023/01/01 10:44:17;;;;;;;;;;;8.30;98.10;;;;;;5042541;28;20026;-78
2023/01/01 10:46:52;;;;;;;65.90;63.30;;;8.30;98.10;;;;;;5042148;28;20254;-78
2023/01/01 10:49:17;;;;;;;68.20;65.50;;;8.30;98.10;;;;;;5040094;28;20056;-78
2023/01/01 10:51:46;;;;;;;67.07;64.38;;;8.30;98.10;;;;;;5008871;28;20120;-77
2023/01/01 10:54:48;;;;;;;65.95;63.33;;;8.40;98.30;;;;;;5040314;28;20108;-77
2023/01/01 10:57:42;;;;;;;65.18;62.58;;;8.50;98.30;;;;;;5021577;28;20038;-77
2023/01/01 11:00:21;;;;;;;55.60;53.40;;;8.60;98.40;;;;;;5033915;28;20034;-78
2023/01/01 11:02:47;;;;;;;38.70;37.20;;;9.00;99.00;;;;;;5032150;28;20063;-78
2023/01/01 11:05:20;;;;;;;39.80;38.30;;;9.60;99.50;;;;;;5037870;28;20029;-77
2023/01/01 11:07:46;;;;;;;43.60;41.90;;;10.20;99.30;;;;;;5039694;28;20053;-77
2023/01/01 11:10:30;;;;;;;;;;;10.40;98.70;;;;;;5042069;28;20026;-78
2023/01/01 11:12:56;;;;;;;52.50;50.50;;;10.30;98.10;;;;;;5037119;28;19989;-77
2023/01/01 11:15:40;;;;;;;52.05;50.05;;;10.00;97.80;;;;;;5030184;28;20025;-78
2023/01/01 11:18:21;;;;;;;53.85;51.75;;;9.70;97.80;;;;;;5032313;28;20048;-77
2023/01/01 11:20:52;;;;;;;52.67;50.67;;;9.50;97.90;;;;;;5032512;28;20112;-78
2023/01/01 11:23:26;;;;;;;52.05;50.05;;;9.30;98.00;;;;;;5033505;28;20389;-78
2023/01/01 11:26:12;;;;;;;53.70;51.60;;;9.20;98.00;;;;;;5032227;28;20044;-78
2023/01/01 11:28:39;;;;;;;54.95;52.85;;;9.10;98.10;;;;;;5034935;28;20028;-77
2023/01/01 11:31:18;;;;;;;53.17;51.15;;;9.00;98.20;;;;;;5019562;28;20034;-77
2023/01/01 11:33:49;;;;;;;51.60;49.60;;;9.00;98.30;;;;;;5031895;28;20104;-78
2023/01/01 11:36:33;;;;;;;50.35;48.45;;;9.00;98.30;;;;;;5032946;28;20025;-77
2023/01/01 11:39:25;;;;;;;53.30;51.30;;;9.10;98.40;;;;;;5034325;28;20025;-77
2023/01/01 11:41:53;;;;;;;56.90;54.70;;;9.10;98.40;;;;;;5033770;28;20028;-78
2023/01/01 11:44:43;;;;;;;50.70;48.80;;;9.20;98.30;;;;;;5030542;28;20116;-77
2023/01/01 11:47:27;;;;;;;51.65;49.65;;;9.20;98.30;;;;;;5033160;28;20025;-78
2023/01/01 11:50:14;;;;;;;50.28;48.38;;;9.10;98.30;;;;;;5031735;28;20064;-77
2023/01/01 11:52:41;;;;;;;;;;;9.10;98.20;;;;;;5033140;28;20469;-77
2023/01/01 11:55:17;;;;;;;47.97;46.17;;;9.10;98.30;;;;;;5035848;28;19913;-77
2023/01/01 11:58:22;;;;;;;45.67;43.97;;;9.10;98.30;;;;;;5032295;28;20070;-76
2023/01/01 12:01:00;;;;;;;48.42;46.63;;;9.20;98.30;;;;;;5037445;28;20292;-77
2023/01/01 12:03:37;;;;;;;47.78;45.97;;;9.20;98.30;;;;;;5037449;28;20044;-77
2023/01/01 12:06:23;;;;;;;42.85;41.25;;;9.20;98.40;;;;;;5036086;28;20052;-77
2023/01/01 12:09:13;;;;;;;42.80;41.20;;;9.30;98.40;;;;;;5034537;28;20367;-77
2023/01/01 12:12:01;;;;;;;39.63;38.13;;;9.30;98.30;;;;;;5029730;28;20083;-77
2023/01/01 12:14:51;;;;;;;39.63;38.13;;;9.20;98.20;;;;;;5030286;28;20029;-76
2023/01/01 12:17:23;;;;;;;36.90;35.50;;;9.10;98.20;;;;;;5032580;28;20030;-79
2023/01/01 12:19:58;;;;;;;38.80;37.30;;;9.10;98.30;;;;;;5033852;28;20026;-79
2023/01/01 12:22:24;;;;;;;34.80;33.50;;;9.10;98.30;;;;;;5032092;28;20454;-78
2023/01/01 12:24:51;;;;;;;36.47;35.08;;;9.10;98.30;;;;;;5031774;28;20029;-79
2023/01/01 12:27:28;;;;;;;37.20;35.80;;;9.10;98.30;;;;;;5020836;28;20069;-79
2023/01/01 12:30:00;;;;;;;37.67;36.28;;;9.00;98.30;;;;;;5035134;28;20018;-79
2023/01/01 12:32:31;;;;;;;32.30;31.10;;;9.00;98.20;;;;;;5032932;28;20051;-79
2023/01/01 12:35:04;;;;;;;33.83;32.53;;;9.00;98.20;;;;;;5036523;28;20033;-78
2023/01/01 12:37:59;;;;;;;30.33;29.13;;;9.00;98.30;;;;;;5029633;28;20025;-78
2023/01/01 12:40:29;;;;;;;24.92;23.92;;;8.90;98.30;;;;;;5027836;28;20063;-79
2023/01/01 12:43:24;;;;;;;26.25;25.25;;;8.90;98.20;;;;;;5029058;28;20151;-79
2023/01/01 12:45:58;;;;;;;25.10;24.10;;;8.90;98.30;;;;;;5022422;28;20102;-79
2023/01/01 12:48:32;;;;;;;21.02;20.23;;;8.90;98.20;;;;;;5028503;28;20034;-79
2023/01/01 12:51:15;;;;;;;20.38;19.58;;;8.80;98.20;;;;;;5029937;28;20068;-79
2023/01/01 12:53:59;;;;;;;22.40;21.50;;;8.80;98.20;;;;;;5029162;28;20448;-79
2023/01/01 12:56:46;;;;;;;21.65;20.75;;;8.70;98.20;;;;;;5027153;28;20076;-78
2023/01/01 12:59:26;;;;;;;23.15;22.25;;;8.70;98.30;;;;;;5026651;28;20405;-79
2023/01/01 13:01:56;;;;;;;23.10;22.20;;;8.60;98.30;;;;;;5026967;28;20074;-79
2023/01/01 13:04:22;;;;;;;23.77;22.88;;;8.60;98.30;;;;;;5027528;28;20022;-79